createdAt,value
2022-07-28T00:00:09.723Z,1.10
2022-07-28T00:02:36.615Z,1.40
2022-07-28T00:05:04.753Z,1.20
2022-07-28T00:07:31.581Z,1.10
2022-07-28T00:10:00.503Z,1.10
2022-07-28T00:12:28.141Z,1.10
2022-07-28T00:14:55.547Z,1.00
2022-07-28T00:17:22.496Z,0.90
2022-07-28T00:19:50.138Z,1.10
2022-07-28T00:22:17.946Z,1.10
2022-07-28T00:24:44.988Z,1.00
2022-07-28T00:27:13.150Z,1.20
2022-07-28T00:29:42.587Z,1.20
2022-07-28T00:32:19.942Z,1.00
2022-07-28T00:34:46.880Z,1.00
2022-07-28T00:37:14.445Z,1.10
2022-07-28T00:39:43.044Z,1.40
2022-07-28T00:42:10.641Z,1.00
2022-07-28T00:44:41.037Z,1.50
2022-07-28T00:47:07.932Z,1.30
2022-07-28T00:49:34.978Z,0.90
2022-07-28T00:52:02.140Z,1.00
2022-07-28T00:54:29.007Z,1.00
2022-07-28T00:56:56.039Z,1.10
2022-07-28T00:59:22.883Z,1.00
2022-07-28T01:01:49.955Z,1.00
2022-07-28T01:04:21.374Z,1.20
2022-07-28T01:07:27.564Z,1.30
2022-07-28T01:10:14.652Z,1.20
2022-07-28T01:13:00.951Z,1.10
2022-07-28T01:15:39.966Z,1.20
2022-07-28T01:18:16.641Z,1.10
2022-07-28T01:21:00.558Z,1.10
2022-07-28T01:23:33.823Z,1.20
2022-07-28T01:26:46.123Z,1.10
2022-07-28T01:29:42.166Z,1.10
2022-07-28T01:32:41.015Z,1.10
2022-07-28T01:35:19.618Z,1.00
2022-07-28T01:37:53.348Z,1.10
2022-07-28T01:40:25.386Z,1.20
2022-07-28T01:42:56.308Z,1.00
2022-07-28T01:45:24.614Z,1.10
2022-07-28T01:47:54.063Z,1.20
2022-07-28T01:50:23.434Z,1.00
2022-07-28T01:52:51.207Z,1.00
2022-07-28T01:55:20.908Z,1.20
2022-07-28T01:57:49.655Z,1.40
2022-07-28T02:00:17.366Z,0.90
2022-07-28T02:02:47.813Z,1.30
2022-07-28T02:05:19.317Z,1.10
2022-07-28T02:07:50.230Z,1.10
2022-07-28T02:10:18.052Z,1.20
2022-07-28T02:12:47.941Z,1.20
2022-07-28T02:15:15.677Z,1.00
2022-07-28T02:17:45.765Z,1.30
2022-07-28T02:20:14.761Z,1.20
2022-07-28T02:22:43.317Z,0.90
2022-07-28T02:25:10.894Z,1.20
2022-07-28T02:28:07.490Z,1.00
2022-07-28T02:30:41.350Z,1.30
2022-07-28T02:33:14.875Z,1.00
2022-07-28T02:35:50.181Z,1.20
2022-07-28T02:38:30.704Z,1.40
2022-07-28T02:41:21.957Z,1.00
2022-07-28T02:43:52.449Z,1.20
2022-07-28T02:46:25.270Z,1.00
2022-07-28T02:49:13.814Z,1.20
2022-07-28T02:51:43.123Z,1.20
2022-07-28T02:54:12.923Z,1.20
2022-07-28T02:56:41.582Z,1.00
2022-07-28T02:59:21.490Z,1.20
2022-07-28T03:01:49.542Z,1.40
2022-07-28T03:04:38.225Z,1.70
2022-07-28T03:07:05.934Z,1.30
2022-07-28T03:09:45.761Z,0.90
2022-07-28T03:12:13.762Z,1.10
2022-07-28T03:14:41.429Z,1.10
2022-07-28T03:17:08.746Z,1.00
2022-07-28T03:19:36.018Z,1.00
2022-07-28T03:22:03.711Z,1.00
2022-07-28T03:24:35.986Z,1.20
2022-07-28T03:27:27.748Z,1.10
2022-07-28T03:30:05.692Z,1.10
2022-07-28T03:32:41.478Z,1.20
2022-07-28T03:35:09.053Z,1.10
2022-07-28T03:37:52.672Z,1.00
2022-07-28T03:40:21.289Z,1.10
2022-07-28T03:42:49.137Z,1.30
2022-07-28T03:45:17.474Z,1.20
2022-07-28T03:47:54.886Z,1.10
2022-07-28T03:50:29.710Z,1.10
2022-07-28T03:52:58.523Z,1.00
2022-07-28T03:55:26.310Z,1.20
2022-07-28T03:57:53.116Z,1.20
2022-07-28T04:00:20.994Z,1.10
2022-07-28T04:02:48.122Z,1.20
2022-07-28T04:05:17.521Z,1.10
2022-07-28T04:07:48.109Z,1.20
2022-07-28T04:10:17.135Z,1.10
2022-07-28T04:13:04.362Z,1.00
2022-07-28T04:15:32.118Z,1.10
2022-07-28T04:18:00.741Z,1.20
2022-07-28T04:20:27.853Z,1.20
2022-07-28T04:22:55.514Z,1.30
2022-07-28T04:25:25.627Z,1.30
2022-07-28T04:27:54.642Z,1.30
2022-07-28T04:30:24.355Z,1.40
2022-07-28T04:32:54.011Z,1.60
2022-07-28T04:35:23.545Z,1.40
2022-07-28T04:37:50.804Z,1.70
2022-07-28T04:40:17.831Z,1.60
2022-07-28T04:42:44.844Z,1.40
2022-07-28T04:45:12.092Z,1.80
2022-07-28T04:47:39.921Z,1.50
2022-07-28T04:50:09.172Z,1.60
2022-07-28T04:52:37.851Z,1.50
2022-07-28T04:55:06.441Z,1.80
2022-07-28T04:57:34.041Z,1.60
2022-07-28T05:00:01.616Z,1.60
2022-07-28T05:02:28.464Z,1.60
2022-07-28T05:04:55.318Z,1.80
2022-07-28T05:07:22.239Z,1.60
2022-07-28T05:09:49.028Z,1.70
2022-07-28T05:12:15.904Z,1.90
2022-07-28T05:14:42.819Z,1.90
2022-07-28T05:17:09.763Z,1.90
2022-07-28T05:19:36.860Z,2.00
2022-07-28T05:22:03.827Z,2.00
2022-07-28T05:24:30.889Z,1.80
2022-07-28T05:26:58.040Z,2.00
2022-07-28T05:29:24.863Z,2.20
2022-07-28T05:32:06.431Z,2.00
2022-07-28T05:34:45.049Z,1.70
2022-07-28T05:37:12.073Z,2.00
2022-07-28T05:39:39.069Z,2.00
2022-07-28T05:42:06.302Z,2.10
2022-07-28T05:44:38.006Z,1.90
2022-07-28T05:47:05.951Z,2.30
2022-07-28T05:49:33.328Z,1.70
2022-07-28T05:52:00.274Z,1.70
2022-07-28T05:54:27.626Z,2.00
2022-07-28T05:56:54.570Z,1.70
2022-07-28T05:59:21.871Z,1.90
2022-07-28T06:01:48.775Z,2.10
2022-07-28T06:04:31.492Z,1.80
2022-07-28T06:06:58.692Z,2.20
2022-07-28T06:09:25.587Z,1.90
2022-07-28T06:11:52.378Z,1.80
2022-07-28T06:14:19.453Z,1.90
2022-07-28T06:16:50.559Z,2.10
2022-07-28T06:21:44.511Z,1.90
2022-07-28T06:24:11.713Z,1.70
2022-07-28T06:26:43.878Z,1.80
2022-07-28T06:29:12.048Z,1.80
2022-07-28T06:31:39.448Z,2.00
2022-07-28T06:34:06.388Z,1.90
2022-07-28T06:36:33.258Z,1.90
2022-07-28T06:39:00.119Z,2.00
2022-07-28T06:41:28.045Z,2.10
2022-07-28T06:43:54.860Z,2.10
2022-07-28T06:46:22.281Z,2.00
2022-07-28T06:48:49.273Z,2.10
2022-07-28T06:51:18.478Z,2.20
2022-07-28T06:53:47.822Z,2.30
2022-07-28T06:56:16.031Z,2.60
2022-07-28T06:58:43.972Z,2.40
2022-07-28T07:03:43.126Z,2.20
2022-07-28T07:06:10.402Z,2.20
2022-07-28T07:08:37.546Z,2.10
2022-07-28T07:11:04.503Z,2.50
2022-07-28T07:13:32.664Z,2.20
2022-07-28T07:16:00.356Z,2.00
2022-07-28T07:18:27.375Z,2.00
2022-07-28T07:20:57.000Z,2.00
2022-07-28T07:23:24.097Z,2.40
2022-07-28T07:25:50.909Z,2.20
2022-07-28T07:28:18.020Z,2.10
2022-07-28T07:30:44.926Z,1.90
2022-07-28T07:33:11.728Z,2.10
2022-07-28T07:35:38.700Z,2.20
2022-07-28T07:38:05.845Z,2.10
2022-07-28T07:40:33.071Z,2.50
2022-07-28T07:42:59.933Z,2.40
2022-07-28T07:45:26.970Z,2.20
2022-07-28T07:47:53.815Z,2.50
2022-07-28T07:50:21.158Z,2.00
2022-07-28T07:52:49.438Z,2.10
2022-07-28T07:55:17.027Z,2.20
2022-07-28T07:57:44.437Z,2.40
2022-07-28T08:00:28.108Z,2.40
2022-07-28T08:02:58.414Z,2.70
2022-07-28T08:05:35.948Z,2.40
2022-07-28T08:08:06.322Z,2.10
2022-07-28T08:10:35.086Z,2.10
2022-07-28T08:13:02.693Z,2.20
2022-07-28T08:15:30.107Z,2.10
2022-07-28T08:17:57.047Z,2.10
2022-07-28T08:20:24.100Z,2.20
2022-07-28T08:22:54.169Z,2.00
2022-07-28T08:25:21.945Z,2.10
2022-07-28T08:27:48.864Z,2.20
2022-07-28T08:30:22.979Z,2.50
2022-07-28T08:32:56.717Z,2.10
2022-07-28T08:35:35.586Z,2.30
2022-07-28T08:38:06.911Z,2.40
2022-07-28T08:40:36.019Z,2.10
2022-07-28T08:43:20.485Z,2.20
2022-07-28T08:45:48.507Z,2.40
2022-07-28T08:48:17.105Z,2.00
2022-07-28T08:50:45.614Z,3.00
2022-07-28T08:53:14.516Z,2.30
2022-07-28T08:55:41.902Z,2.20
2022-07-28T08:58:12.091Z,2.30
2022-07-28T09:03:06.677Z,2.50
2022-07-28T09:05:35.327Z,2.20
2022-07-28T09:08:02.802Z,2.40
2022-07-28T09:10:30.416Z,2.30
2022-07-28T09:12:57.337Z,2.50
2022-07-28T09:15:24.168Z,2.20
2022-07-28T09:17:51.770Z,2.20
2022-07-28T09:20:19.838Z,2.60
2022-07-28T09:23:00.206Z,2.90
2022-07-28T09:25:28.290Z,2.80
2022-07-28T09:27:56.130Z,3.10
2022-07-28T09:30:35.957Z,2.80
2022-07-28T09:33:43.107Z,2.50
2022-07-28T09:36:02.228Z,2.70
2022-07-28T09:38:40.227Z,2.70
2022-07-28T09:41:07.278Z,2.10
2022-07-28T09:43:39.835Z,2.30
2022-07-28T09:46:14.798Z,2.40
2022-07-28T09:49:00.810Z,2.20
2022-07-28T09:51:35.185Z,2.50
2022-07-28T09:54:19.507Z,2.10
2022-07-28T09:56:46.472Z,1.90
2022-07-28T09:59:14.898Z,1.80
2022-07-28T10:02:01.541Z,2.10
2022-07-28T10:04:36.960Z,2.10
2022-07-28T10:07:18.986Z,1.70
2022-07-28T10:10:08.169Z,1.50
2022-07-28T10:12:37.651Z,1.40
2022-07-28T10:15:39.029Z,1.50
2022-07-28T10:18:13.652Z,1.50
2022-07-28T10:20:40.725Z,1.40
2022-07-28T10:23:13.329Z,1.50
2022-07-28T10:25:41.307Z,1.60
2022-07-28T10:28:10.356Z,1.70
2022-07-28T10:30:40.502Z,1.50
2022-07-28T10:35:54.389Z,1.60
2022-07-28T10:38:27.497Z,1.50
2022-07-28T10:40:55.911Z,1.30
2022-07-28T10:43:23.569Z,1.70
2022-07-28T10:46:05.549Z,1.30
2022-07-28T10:48:38.086Z,1.70
2022-07-28T10:51:05.903Z,1.60
2022-07-28T10:53:41.644Z,1.60
2022-07-28T10:56:17.790Z,1.70
2022-07-28T10:59:42.708Z,1.60
2022-07-28T11:02:47.891Z,1.70
2022-07-28T11:05:33.957Z,1.70
2022-07-28T11:08:08.805Z,1.50
2022-07-28T11:10:48.663Z,1.50
2022-07-28T11:13:44.956Z,1.50
2022-07-28T11:16:15.968Z,1.60
2022-07-28T11:19:01.633Z,1.40
2022-07-28T11:21:31.680Z,1.70
2022-07-28T11:24:08.067Z,1.70
2022-07-28T11:26:36.420Z,1.70
2022-07-28T11:29:03.362Z,1.60
2022-07-28T11:31:47.701Z,1.80
2022-07-28T11:34:19.359Z,1.50
2022-07-28T11:37:07.451Z,1.90
2022-07-28T11:39:43.057Z,1.50
2022-07-28T11:42:39.658Z,1.50
2022-07-28T11:45:26.512Z,1.70
2022-07-28T11:48:22.984Z,1.50
2022-07-28T11:51:05.236Z,1.90
2022-07-28T11:53:40.650Z,1.70
2022-07-28T11:56:10.048Z,1.70
2022-07-28T11:58:38.140Z,1.40
2022-07-28T12:01:18.458Z,1.60
2022-07-28T12:03:55.317Z,1.50
2022-07-28T12:06:28.981Z,1.50
2022-07-28T12:08:59.003Z,1.40
2022-07-28T12:11:31.287Z,1.60
2022-07-28T12:14:04.713Z,1.40
2022-07-28T12:16:35.815Z,1.20
2022-07-28T12:19:05.221Z,1.60
2022-07-28T12:21:46.280Z,1.30
2022-07-28T12:24:22.430Z,1.30
2022-07-28T12:26:50.622Z,1.50
2022-07-28T12:29:19.582Z,1.50
2022-07-28T12:31:58.953Z,1.30
2022-07-28T12:34:29.211Z,1.60
2022-07-28T12:37:02.270Z,1.50
2022-07-28T12:39:33.551Z,1.20
2022-07-28T12:42:03.813Z,1.50
2022-07-28T12:44:42.245Z,1.20
2022-07-28T12:47:11.521Z,1.30
2022-07-28T12:49:41.718Z,1.30
2022-07-28T12:54:55.609Z,1.50
2022-07-28T12:57:50.367Z,1.50
2022-07-28T13:00:28.588Z,1.40
2022-07-28T13:02:59.380Z,1.80
2022-07-28T13:05:53.175Z,1.50
2022-07-28T13:08:24.675Z,1.40
2022-07-28T13:10:56.688Z,1.40
2022-07-28T13:13:24.492Z,1.20
2022-07-28T13:16:20.699Z,1.70
2022-07-28T13:18:53.792Z,1.60
2022-07-28T13:21:56.593Z,1.70
2022-07-28T13:24:27.690Z,1.40
2022-07-28T13:26:56.098Z,1.70
2022-07-28T13:29:23.349Z,1.40
2022-07-28T13:31:51.631Z,2.00
2022-07-28T13:34:18.935Z,1.60
2022-07-28T13:36:45.999Z,1.50
2022-07-28T13:39:15.798Z,1.20
2022-07-28T13:41:57.441Z,1.40
2022-07-28T13:44:29.171Z,1.40
2022-07-28T13:46:59.711Z,1.40
2022-07-28T13:49:28.691Z,2.40
2022-07-28T13:51:55.688Z,1.60
2022-07-28T13:54:22.780Z,1.60
2022-07-28T13:57:13.400Z,1.50
2022-07-28T13:59:41.690Z,1.60
2022-07-28T14:04:46.060Z,1.70
2022-07-28T14:07:21.301Z,2.10
2022-07-28T14:09:50.074Z,1.60
2022-07-28T14:12:17.553Z,1.60
2022-07-28T14:14:48.366Z,1.30
2022-07-28T14:17:42.695Z,1.10
2022-07-28T14:20:10.369Z,1.60
2022-07-28T14:22:38.142Z,1.40
2022-07-28T14:25:05.611Z,1.50
2022-07-28T14:27:33.636Z,1.60
2022-07-28T14:30:03.433Z,1.20
2022-07-28T14:32:32.267Z,1.30
2022-07-28T14:34:59.543Z,1.20
2022-07-28T14:37:26.435Z,1.50
2022-07-28T14:39:53.323Z,1.50
2022-07-28T14:42:20.252Z,1.60
2022-07-28T14:44:47.196Z,1.70
2022-07-28T14:47:14.920Z,1.40
2022-07-28T14:49:58.033Z,1.50
2022-07-28T14:52:26.754Z,1.40
2022-07-28T14:54:54.672Z,1.20
2022-07-28T14:57:21.485Z,1.40
2022-07-28T15:00:12.069Z,1.50
2022-07-28T15:02:39.228Z,1.70
2022-07-28T15:05:07.567Z,1.80
2022-07-28T15:07:34.949Z,1.70
2022-07-28T15:10:05.611Z,1.50
2022-07-28T15:12:32.464Z,1.20
2022-07-28T15:14:59.310Z,1.60
2022-07-28T15:17:26.178Z,1.50
2022-07-28T15:19:52.995Z,1.70
2022-07-28T15:22:19.887Z,1.40
2022-07-28T15:24:53.341Z,1.10
2022-07-28T15:27:20.353Z,1.60
2022-07-28T15:29:47.151Z,1.60
2022-07-28T15:32:17.827Z,1.50
2022-07-28T15:34:45.291Z,1.40
2022-07-28T15:37:12.140Z,1.50
2022-07-28T15:39:44.690Z,1.40
2022-07-28T15:42:12.266Z,1.40
2022-07-28T15:44:39.166Z,1.80
2022-07-28T15:47:06.184Z,1.30
2022-07-28T15:49:33.269Z,1.30
2022-07-28T15:52:00.994Z,1.60
2022-07-28T15:54:27.939Z,1.60
2022-07-28T15:56:54.846Z,1.50
2022-07-28T15:59:21.695Z,1.90
2022-07-28T16:01:48.592Z,1.60
2022-07-28T16:04:16.083Z,1.60
2022-07-28T16:07:01.922Z,1.40
2022-07-28T16:09:46.123Z,1.50
2022-07-28T16:12:15.630Z,1.20
2022-07-28T16:14:42.654Z,1.30
2022-07-28T16:17:11.030Z,1.30
2022-07-28T16:19:49.013Z,1.30
2022-07-28T16:22:18.461Z,1.30
2022-07-28T16:24:45.656Z,1.30
2022-07-28T16:27:12.505Z,1.20
2022-07-28T16:29:39.337Z,1.30
2022-07-28T16:32:06.367Z,1.40
2022-07-28T16:34:34.054Z,1.20
2022-07-28T16:37:01.185Z,1.30
2022-07-28T16:39:31.872Z,1.30
2022-07-28T16:41:58.706Z,1.30
2022-07-28T16:44:26.050Z,1.20
2022-07-28T16:46:52.973Z,1.40
2022-07-28T16:49:19.905Z,1.00
2022-07-28T16:51:46.959Z,1.40
2022-07-28T16:54:14.354Z,1.70
2022-07-28T16:56:42.475Z,1.40
2022-07-28T16:59:09.479Z,1.30
2022-07-28T17:01:36.466Z,1.40
2022-07-28T17:04:03.576Z,1.60
2022-07-28T17:06:30.774Z,1.60
2022-07-28T17:08:58.197Z,1.40
2022-07-28T17:11:25.141Z,1.40
2022-07-28T17:13:52.089Z,1.30
2022-07-28T17:16:19.069Z,1.50
2022-07-28T17:18:45.868Z,1.30
2022-07-28T17:21:12.711Z,1.60
2022-07-28T17:23:40.335Z,1.30
2022-07-28T17:28:54.647Z,1.20
2022-07-28T17:31:21.575Z,1.50
2022-07-28T17:33:48.655Z,1.60
2022-07-28T17:36:15.504Z,1.50
2022-07-28T17:38:42.454Z,2.00
2022-07-28T17:41:09.594Z,1.70
2022-07-28T17:43:37.217Z,1.50
2022-07-28T17:46:10.484Z,1.80
2022-07-28T17:48:39.153Z,1.70
2022-07-28T17:51:06.116Z,1.70
2022-07-28T17:53:33.085Z,1.40
2022-07-28T17:56:08.484Z,1.40
2022-07-28T17:58:36.167Z,1.20
2022-07-28T18:01:11.755Z,1.50
2022-07-28T18:03:59.562Z,1.70
2022-07-28T18:06:34.208Z,1.50
2022-07-28T18:09:08.612Z,1.50
2022-07-28T18:11:55.514Z,1.80
2022-07-28T18:14:29.376Z,1.50
2022-07-28T18:16:57.252Z,1.60
2022-07-28T18:19:25.803Z,1.60
2022-07-28T18:21:52.824Z,1.80
2022-07-28T18:24:21.424Z,1.90
2022-07-28T18:26:52.580Z,1.90
2022-07-28T18:29:21.164Z,1.70
2022-07-28T18:31:50.530Z,1.70
2022-07-28T18:34:18.502Z,1.90
2022-07-28T18:36:45.644Z,1.70
2022-07-28T18:39:12.518Z,2.00
2022-07-28T18:41:46.919Z,1.90
2022-07-28T18:44:16.626Z,2.00
2022-07-28T18:46:44.393Z,1.80
2022-07-28T18:49:11.500Z,2.00
2022-07-28T18:51:38.418Z,2.00
2022-07-28T18:54:05.348Z,2.00
2022-07-28T18:56:33.249Z,1.90
2022-07-28T18:59:00.141Z,2.40
2022-07-28T19:01:26.937Z,2.00
2022-07-28T19:03:53.836Z,2.30
2022-07-28T19:06:20.745Z,2.40
2022-07-28T19:08:47.922Z,2.20
2022-07-28T19:11:19.489Z,2.00
2022-07-28T19:13:47.803Z,2.40
2022-07-28T19:16:14.701Z,2.50
2022-07-28T19:18:41.666Z,2.20
2022-07-28T19:21:08.648Z,2.30
2022-07-28T19:23:35.407Z,2.90
2022-07-28T19:26:02.421Z,2.60
2022-07-28T19:28:29.647Z,2.40
2022-07-28T19:30:57.910Z,2.40
2022-07-28T19:33:25.505Z,2.10
2022-07-28T19:35:52.319Z,2.30
2022-07-28T19:38:19.449Z,2.40
2022-07-28T19:40:46.255Z,2.30
2022-07-28T19:43:13.096Z,2.60
2022-07-28T19:45:40.351Z,2.10
2022-07-28T19:48:07.421Z,2.20
2022-07-28T19:50:35.673Z,2.10
2022-07-28T19:53:03.089Z,1.90
2022-07-28T19:55:35.119Z,2.10
2022-07-28T19:58:03.201Z,2.10
2022-07-28T20:00:30.031Z,1.90
2022-07-28T20:02:57.103Z,2.30
2022-07-28T20:05:24.318Z,2.50
2022-07-28T20:07:51.153Z,2.60
2022-07-28T20:10:18.068Z,2.20
2022-07-28T20:12:45.110Z,2.50
2022-07-28T20:15:12.235Z,2.20
2022-07-28T20:17:40.056Z,2.30
2022-07-28T20:20:09.595Z,2.40
2022-07-28T20:22:37.047Z,2.30
2022-07-28T20:25:04.817Z,2.20
2022-07-28T20:27:31.679Z,2.30
2022-07-28T20:30:12.735Z,2.20
2022-07-28T20:32:42.303Z,2.70
2022-07-28T20:35:10.857Z,2.60
2022-07-28T20:37:38.344Z,2.20
2022-07-28T20:40:06.976Z,1.90
2022-07-28T20:42:35.389Z,2.30
2022-07-28T20:45:04.774Z,2.30
2022-07-28T20:47:32.726Z,2.50
2022-07-28T20:50:00.482Z,2.30
2022-07-28T20:52:27.698Z,2.30
2022-07-28T20:54:55.091Z,2.30
2022-07-28T20:57:22.753Z,2.50
2022-07-28T20:59:53.037Z,2.30
2022-07-28T21:02:21.567Z,2.40
2022-07-28T21:04:50.487Z,2.30
2022-07-28T21:08:00.048Z,2.20
2022-07-28T21:10:06.736Z,2.00
2022-07-28T21:12:38.334Z,2.70
2022-07-28T21:15:06.674Z,2.50
2022-07-28T21:17:33.725Z,2.70
2022-07-28T21:20:00.567Z,2.30
2022-07-28T21:22:27.361Z,2.60
2022-07-28T21:24:55.623Z,2.30
2022-07-28T21:27:23.460Z,1.90
2022-07-28T21:32:18.301Z,2.40
2022-07-28T21:34:45.360Z,2.20
2022-07-28T21:37:13.247Z,2.50
2022-07-28T21:39:40.289Z,1.90
2022-07-28T21:42:08.801Z,2.10
2022-07-28T21:44:38.803Z,2.40
2022-07-28T21:47:06.597Z,2.60
2022-07-28T21:49:33.843Z,2.60
2022-07-28T21:52:00.702Z,2.00
2022-07-28T21:54:27.682Z,2.10
2022-07-28T21:56:54.484Z,2.20
2022-07-28T21:59:21.416Z,2.00
2022-07-28T22:01:48.522Z,2.30
2022-07-28T22:04:15.759Z,2.20
2022-07-28T22:06:45.997Z,2.00
2022-07-28T22:09:14.562Z,2.70
2022-07-28T22:11:41.741Z,2.20
2022-07-28T22:14:08.989Z,2.00
2022-07-28T22:16:36.225Z,2.40
2022-07-28T22:19:03.893Z,2.20
2022-07-28T22:21:31.345Z,2.30
2022-07-28T22:23:58.119Z,2.10
2022-07-28T22:26:24.967Z,2.10
2022-07-28T22:28:51.837Z,2.20
2022-07-28T22:31:18.757Z,2.30
2022-07-28T22:33:46.154Z,2.40
2022-07-28T22:36:13.459Z,2.40
2022-07-28T22:38:40.613Z,2.30
2022-07-28T22:41:08.954Z,2.50
2022-07-28T22:43:35.714Z,2.10
2022-07-28T22:46:02.586Z,2.30
2022-07-28T22:48:29.408Z,2.20
2022-07-28T22:50:56.310Z,2.20
2022-07-28T22:53:23.129Z,2.50
2022-07-28T22:55:49.920Z,2.00
2022-07-28T22:58:16.923Z,1.90
2022-07-28T23:00:43.955Z,2.30
2022-07-28T23:03:13.235Z,2.00
2022-07-28T23:05:42.865Z,2.10
2022-07-28T23:08:09.731Z,1.80
2022-07-28T23:10:37.809Z,2.00
2022-07-28T23:13:04.714Z,2.10
2022-07-28T23:15:40.089Z,2.10
2022-07-28T23:18:15.202Z,1.70
2022-07-28T23:20:43.315Z,2.30
2022-07-28T23:23:10.963Z,2.20
2022-07-28T23:25:42.065Z,1.90
2022-07-28T23:28:10.301Z,2.20
2022-07-28T23:30:37.568Z,1.90
2022-07-28T23:33:05.093Z,2.10
2022-07-28T23:35:35.002Z,2.20
2022-07-28T23:38:02.433Z,2.20
2022-07-28T23:40:29.428Z,2.10
2022-07-28T23:42:56.729Z,2.30
2022-07-28T23:45:23.843Z,2.20
2022-07-28T23:47:53.877Z,2.00
2022-07-28T23:50:24.097Z,2.40
2022-07-28T23:52:50.942Z,2.20
2022-07-28T23:55:18.063Z,2.10
2022-07-28T23:57:44.860Z,2.00
